Time;durP1;ratioP1;P1;durP2;ratioP2;P2;SDS_P1;SDS_P2;PMS_P1;PMS_P2;Temp;Humidity;BMP_temperature;BMP_pressure;BME280_temperature;BME280_humidity;BME280_pressure;Samples;Min_cycle;Max_cycle;Signal;HPM_P1;HPM_P2
2021/09/21 00:00:22;;;;;;;4.67;4.07;;;;;;;9.72;100.00;101862.88;5096272;28;20596;-70
2021/09/21 00:02:48;;;;;;;6.30;4.67;;;;;;;9.73;100.00;101869.97;5096261;28;20244;-71
2021/09/21 00:05:13;;;;;;;4.83;4.13;;;;;;;9.72;100.00;101868.22;5094978;28;20174;-71
2021/09/21 00:07:39;;;;;;;8.60;4.70;;;;;;;9.74;100.00;101868.16;5094932;28;20544;-71
2021/09/21 00:10:06;;;;;;;7.00;4.37;;;;;;;9.72;100.00;101865.56;5078368;28;20632;-71
2021/09/21 00:12:31;;;;;;;6.03;4.47;;;;;;;9.70;100.00;101865.59;5094987;28;20202;-71
2021/09/21 00:14:56;;;;;;;5.83;4.40;;;;;;;9.67;100.00;101863.03;5094493;28;20634;-71
2021/09/21 00:17:22;;;;;;;5.87;4.37;;;;;;;9.66;100.00;101873.72;5094523;28;20197;-71
2021/09/21 00:19:47;;;;;;;8.20;4.50;;;;;;;9.64;100.00;101872.91;5094518;28;20183;-71
2021/09/21 00:22:13;;;;;;;6.53;4.50;;;;;;;9.59;100.00;101878.38;5094459;28;20713;-71
2021/09/21 00:24:38;;;;;;;7.20;4.30;;;;;;;9.55;100.00;101879.41;5096274;28;20178;-71
2021/09/21 00:27:03;;;;;;;6.03;4.00;;;;;;;9.51;100.00;101885.75;5095922;28;20175;-71
2021/09/21 00:29:28;;;;;;;8.67;4.80;;;;;;;9.47;100.00;101897.44;5096108;28;20559;-70
2021/09/21 00:32:00;;;;;;;8.30;4.70;;;;;;;9.48;100.00;101899.19;5095257;28;20544;-70
2021/09/21 00:34:28;;;;;;;5.60;4.70;;;;;;;9.49;100.00;101897.41;5095515;28;20531;-70
2021/09/21 00:36:54;;;;;;;5.93;4.70;;;;;;;9.48;100.00;101892.97;5077373;28;20280;-71
2021/09/21 00:39:20;;;;;;;6.87;4.40;;;;;;;9.48;100.00;101896.53;5094235;28;20202;-71
2021/09/21 00:41:45;;;;;;;7.23;4.60;;;;;;;9.52;100.00;101897.28;5093696;28;20198;-71
2021/09/21 00:44:10;;;;;;;7.83;5.10;;;;;;;9.54;100.00;101898.13;5093169;28;20194;-71
2021/09/21 00:46:36;;;;;;;8.37;4.70;;;;;;;9.60;100.00;101896.13;5095287;28;20635;-70
2021/09/21 00:49:01;;;;;;;5.07;4.40;;;;;;;9.58;100.00;101895.31;5093638;28;20198;-71
2021/09/21 00:51:27;;;;;;;5.70;4.17;;;;;;;9.61;100.00;101895.19;5093621;28;20237;-71
2021/09/21 00:53:53;;;;;;;7.37;4.30;;;;;;;9.62;100.00;101890.75;5094939;28;20170;-71
2021/09/21 00:56:18;;;;;;;11.00;4.30;;;;;;;9.63;100.00;101892.47;5078461;28;20198;-71
2021/09/21 00:58:43;;;;;;;7.37;4.03;;;;;;;9.60;100.00;101885.47;5095357;28;20213;-71
2021/09/21 01:01:08;;;;;;;7.10;5.20;;;;;;;9.61;100.00;101889.00;5094931;28;20178;-71
2021/09/21 01:03:34;;;;;;;5.63;4.37;;;;;;;9.62;100.00;101888.94;5094989;28;20620;-71
2021/09/21 01:05:59;;;;;;;7.27;4.20;;;;;;;9.63;100.00;101885.34;5094919;28;20227;-71
2021/09/21 01:08:28;;;;;;;6.87;4.30;;;;;;;9.66;100.00;101887.97;5094983;28;20182;-69
2021/09/21 01:10:53;;;;;;;6.23;4.30;;;;;;;9.65;100.00;101890.63;5094484;28;20170;-70
2021/09/21 01:13:18;;;;;;;7.10;4.50;;;;;;;9.65;100.00;101891.50;5094945;28;20540;-70
2021/09/21 01:15:44;;;;;;;5.43;3.97;;;;;;;9.65;100.00;101893.31;5093570;28;20213;-69
2021/09/21 01:18:09;;;;;;;5.80;4.10;;;;;;;9.65;100.00;101893.31;5094827;28;20182;-70
2021/09/21 01:20:34;;;;;;;5.10;4.10;;;;;;;9.63;100.00;101885.34;5093234;28;20741;-71
2021/09/21 01:23:03;;;;;;;9.37;4.23;;;;;;;9.65;100.00;101886.19;5093431;28;20616;-71
2021/09/21 01:25:29;;;;;;;7.77;4.40;;;;;;;9.66;100.00;101884.38;5094235;28;20185;-70
2021/09/21 01:27:54;;;;;;;5.53;3.80;;;;;;;9.65;100.00;101885.31;5093155;28;20343;-70
2021/09/21 01:30:20;;;;;;;5.83;4.17;;;;;;;9.62;100.00;101875.63;5094571;28;20644;-70
2021/09/21 01:32:45;;;;;;;6.80;4.77;;;;;;;9.61;100.00;101887.19;5094112;28;20202;-71
2021/09/21 01:35:12;;;;;;;6.33;4.40;;;;;;;9.53;100.00;101883.91;5092953;28;20174;-71
2021/09/21 01:37:39;;;;;;;7.77;4.17;;;;;;;9.50;100.00;101886.69;5093037;28;20251;-71
2021/09/21 01:40:05;;;;;;;9.17;4.30;;;;;;;9.49;100.00;101887.59;5093026;28;20178;-71
2021/09/21 01:42:31;;;;;;;6.50;4.13;;;;;;;9.47;100.00;101886.78;5093963;28;20198;-71
2021/09/21 01:44:56;;;;;;;6.30;4.43;;;;;;;9.43;100.00;101887.81;5093975;28;20190;-70
2021/09/21 01:47:21;;;;;;;5.67;4.20;;;;;;;9.44;100.00;101872.69;5094603;28;20193;-71
2021/09/21 01:52:37;;;;;;;10.27;4.50;;;;;;;9.43;100.00;101876.28;5092903;28;20216;-71
2021/09/21 02:00:12;;;;;;;6.97;4.53;;;;;;;9.41;100.00;101884.31;5094063;28;20567;-70
2021/09/21 02:02:37;;;;;;;5.50;4.70;;;;;;;9.38;100.00;101876.41;5093755;28;20201;-71
2021/09/21 02:05:03;;;;;;;8.63;5.00;;;;;;;9.37;100.00;101874.69;5093722;28;20184;-71
2021/09/21 02:07:28;;;;;;;6.67;5.37;;;;;;;9.38;100.00;101884.41;5092282;28;20586;-71
2021/09/21 02:09:53;;;;;;;7.23;5.07;;;;;;;9.38;100.00;101879.09;5093617;28;20208;-71
2021/09/21 02:12:19;;;;;;;9.57;5.47;;;;;;;9.37;100.00;101880.00;5093374;28;20201;-71
2021/09/21 02:14:44;;;;;;;8.10;5.17;;;;;;;9.35;100.00;101876.53;5092902;28;20174;-70
2021/09/21 02:17:09;;;;;;;5.63;4.67;;;;;;;9.38;100.00;101881.75;5093475;28;20199;-70
2021/09/21 02:19:34;;;;;;;5.70;4.67;;;;;;;9.41;100.00;101886.97;5093348;28;20182;-70
2021/09/21 02:22:00;;;;;;;10.37;5.37;;;;;;;9.38;100.00;101893.28;5093207;28;20202;-71
2021/09/21 02:24:25;;;;;;;7.30;5.20;;;;;;;9.39;100.00;101897.69;5093307;28;20685;-71
2021/09/21 02:26:51;;;;;;;9.90;5.53;;;;;;;9.37;100.00;101901.31;5075170;28;20181;-71
2021/09/21 02:29:16;;;;;;;9.07;5.87;;;;;;;9.32;100.00;101904.13;5092061;28;20192;-69
2021/09/21 02:31:42;;;;;;;9.13;5.47;;;;;;;9.41;100.00;101897.63;5093107;28;20198;-71
2021/09/21 02:34:07;;;;;;;9.20;5.53;;;;;;;9.38;100.00;101890.63;5092005;28;20178;-70
2021/09/21 02:36:32;;;;;;;7.53;5.10;;;;;;;9.42;100.00;101894.06;5092054;28;20665;-71
2021/09/21 02:38:58;;;;;;;8.60;4.80;;;;;;;9.43;100.00;101892.25;5091862;28;20734;-70
2021/09/21 02:41:23;;;;;;;7.47;5.40;;;;;;;9.45;100.00;101893.09;5091742;28;20213;-71
2021/09/21 02:43:49;;;;;;;7.23;5.17;;;;;;;9.47;100.00;101892.13;5093292;28;20174;-71
2021/09/21 02:46:15;;;;;;;7.60;5.07;;;;;;;9.54;100.00;101883.00;5091725;28;20238;-71
2021/09/21 02:48:40;;;;;;;7.90;5.93;;;;;;;9.55;100.00;101879.41;5092973;28;20651;-71
2021/09/21 02:51:05;;;;;;;9.30;5.33;;;;;;;9.53;100.00;101885.72;5091501;28;20190;-71
2021/09/21 02:53:31;;;;;;;9.07;5.30;;;;;;;9.49;100.00;101884.06;5081676;23;20238;-69
2021/09/21 02:55:56;;;;;;;9.10;5.53;;;;;;;9.46;100.00;101876.16;5053103;28;20176;-69
2021/09/21 02:58:22;;;;;;;6.37;5.03;;;;;;;9.42;100.00;101888.72;5051766;28;20274;-68
2021/09/21 03:00:51;;;;;;;8.77;5.10;;;;;;;9.37;100.00;101894.19;5052158;28;20179;-68
2021/09/21 03:03:16;;;;;;;7.00;5.27;;;;;;;9.36;100.00;101889.78;5052840;28;20199;-68
2021/09/21 03:05:44;;;;;;;8.00;5.30;;;;;;;9.33;100.00;101897.88;5052215;28;20178;-68
2021/09/21 03:08:15;;;;;;;7.97;4.77;;;;;;;9.36;100.00;101899.59;5057268;28;20571;-68
2021/09/21 03:18:21;;;;;;;7.47;5.00;;;;;;;9.45;100.00;101901.94;5057357;28;20174;-68
2021/09/21 03:20:47;;;;;;;7.20;5.30;;;;;;;9.48;100.00;101891.19;5072742;28;20171;-68
2021/09/21 03:23:12;;;;;;;6.77;5.20;;;;;;;9.48;100.00;101892.97;5056638;28;20195;-68
2021/09/21 03:25:37;;;;;;;7.83;5.23;;;;;;;9.50;100.00;101894.69;5056829;28;20541;-68
2021/09/21 03:28:03;;;;;;;9.17;5.47;;;;;;;9.57;100.00;101888.22;5056914;28;20201;-68
2021/09/21 03:30:28;;;;;;;8.03;5.37;;;;;;;9.57;100.00;101882.91;5055687;28;20183;-68
2021/09/21 03:32:53;;;;;;;6.33;5.07;;;;;;;9.59;100.00;101886.38;5056631;28;20191;-68
2021/09/21 03:35:19;;;;;;;6.57;5.27;;;;;;;9.65;100.00;101901.31;5055381;28;20230;-68
2021/09/21 03:37:44;;;;;;;6.67;4.63;;;;;;;9.76;100.00;101892.97;5056927;28;20253;-69
2021/09/21 03:40:10;;;;;;;5.40;4.73;;;;;;;9.77;100.00;101897.38;5056967;28;20173;-69
2021/09/21 03:42:35;;;;;;;7.77;5.77;;;;;;;9.80;100.00;101899.94;5055540;28;20199;-68
2021/09/21 03:45:01;;;;;;;9.37;6.03;;;;;;;9.77;100.00;101897.38;5056465;28;20179;-68
2021/09/21 03:47:26;;;;;;;14.13;5.93;;;;;;;9.73;100.00;101901.94;5056281;28;20171;-68
2021/09/21 03:49:52;;;;;;;12.50;6.23;;;;;;;9.71;100.00;101894.00;5056181;28;20510;-68
2021/09/21 03:52:17;;;;;;;8.90;5.67;;;;;;;9.75;100.00;101892.09;5055867;28;20203;-68
2021/09/21 03:54:42;;;;;;;9.50;5.53;;;;;;;9.78;100.00;101896.47;5056026;28;20172;-68
2021/09/21 03:57:07;;;;;;;8.93;5.67;;;;;;;9.81;100.00;101899.03;5054723;28;20206;-69
2021/09/21 03:59:33;;;;;;;10.23;5.73;;;;;;;9.84;100.00;101907.78;5054899;28;20511;-68
2021/09/21 04:01:58;;;;;;;9.30;6.30;;;;;;;9.79;100.00;101903.53;5056180;28;20198;-68
2021/09/21 04:04:23;;;;;;;6.20;5.30;;;;;;;9.76;100.00;101899.19;5056127;28;20217;-68
2021/09/21 04:06:49;;;;;;;7.97;5.73;;;;;;;9.70;100.00;101892.25;5055936;28;20179;-68
2021/09/21 04:09:14;;;;;;;7.33;5.20;;;;;;;9.73;100.00;101899.28;5054757;28;20180;-68
2021/09/21 04:11:39;;;;;;;7.87;5.73;;;;;;;9.77;100.00;101900.06;5055806;28;20569;-68
2021/09/21 04:14:05;;;;;;;10.60;5.93;;;;;;;9.75;100.00;101896.56;5056470;28;20217;-68
2021/09/21 04:16:30;;;;;;;8.07;6.03;;;;;;;9.74;100.00;101900.16;5055527;28;20573;-68
2021/09/21 04:18:58;;;;;;;8.40;5.73;;;;;;;9.76;100.00;101892.97;5054570;28;20172;-68
2021/09/21 04:21:24;;;;;;;10.10;6.43;;;;;;;9.75;100.00;101896.56;5055619;28;20198;-68
2021/09/21 04:23:49;;;;;;;8.53;5.90;;;;;;;9.70;100.00;101894.94;5055320;28;20669;-68
2021/09/21 04:26:15;;;;;;;9.40;5.90;;;;;;;9.70;100.00;101908.25;5055763;28;20246;-69
2021/09/21 04:28:40;;;;;;;8.97;6.00;;;;;;;9.71;100.00;101899.34;5054251;28;20171;-69
2021/09/21 04:31:09;;;;;;;9.00;6.13;;;;;;;9.66;100.00;101898.63;5054545;28;20192;-69
2021/09/21 04:33:40;;;;;;;8.37;6.43;;;;;;;9.71;100.00;101896.66;5055882;28;20227;-68
2021/09/21 04:36:07;;;;;;;8.33;5.97;;;;;;;9.68;100.00;101902.09;5055494;28;20691;-68
2021/09/21 04:38:32;;;;;;;10.37;5.87;;;;;;;9.61;100.00;101887.19;5054724;28;20227;-68
2021/09/21 04:40:58;;;;;;;8.87;5.80;;;;;;;9.64;100.00;101889.78;5054114;28;20232;-68
2021/09/21 04:43:23;;;;;;;7.93;6.33;;;;;;;9.66;100.00;101882.63;5055266;28;20200;-68
2021/09/21 04:45:48;;;;;;;8.17;5.57;;;;;;;9.73;100.00;101879.75;5054334;28;20190;-69
2021/09/21 04:48:14;;;;;;;8.23;6.23;;;;;;;9.73;100.00;101879.75;5055493;28;20272;-68
2021/09/21 04:50:39;;;;;;;7.20;5.93;;;;;;;9.69;100.00;101877.19;5055416;28;20172;-68
2021/09/21 04:53:04;;;;;;;7.03;6.33;;;;;;;9.70;100.00;101886.94;5055048;28;20368;-65
2021/09/21 04:55:30;;;;;;;8.57;5.90;;;;;;;9.70;100.00;101886.94;5054969;28;20175;-62
2021/09/21 04:57:55;;;;;;;7.47;6.20;;;;;;;9.75;100.00;101899.22;5054872;28;20199;-68
2021/09/21 05:00:20;;;;;;;9.97;6.57;;;;;;;9.83;100.00;101898.06;5070401;28;20179;-68
2021/09/21 05:02:46;;;;;;;10.47;6.23;;;;;;;9.83;100.00;101890.06;5054940;28;20200;-68
2021/09/21 05:05:11;;;;;;;12.30;6.13;;;;;;;9.79;100.00;101887.53;5053711;28;20184;-68
2021/09/21 05:07:36;;;;;;;7.77;6.47;;;;;;;9.80;100.00;101894.63;5053530;28;20199;-67
2021/09/21 05:10:02;;;;;;;9.60;5.97;;;;;;;9.93;100.00;101899.47;5070218;28;20176;-67
2021/09/21 05:12:28;;;;;;;8.13;6.07;;;;;;;9.91;100.00;101887.13;5070527;28;20196;-68
2021/09/21 05:14:53;;;;;;;8.40;5.97;;;;;;;9.82;100.00;101895.44;5055027;28;20205;-68
2021/09/21 05:17:19;;;;;;;12.23;6.23;;;;;;;9.82;100.00;101901.66;5055146;28;20207;-68
2021/09/21 05:19:44;;;;;;;7.97;6.20;;;;;;;9.84;100.00;101901.59;5036855;28;20609;-68
2021/09/21 05:22:10;;;;;;;10.13;5.73;;;;;;;9.88;100.00;101898.78;5053460;28;20223;-69
2021/09/21 05:24:35;;;;;;;8.43;5.47;;;;;;;9.86;100.00;101897.09;5055427;28;20179;-67
2021/09/21 05:27:00;;;;;;;8.83;5.70;;;;;;;9.85;100.00;101893.53;5053651;28;20167;-68
2021/09/21 05:29:26;;;;;;;6.97;5.60;;;;;;;9.90;100.00;101893.38;5053961;28;20171;-67
2021/09/21 05:31:51;;;;;;;10.23;5.80;;;;;;;9.92;100.00;101889.75;5053125;28;20206;-66
2021/09/21 05:34:16;;;;;;;10.33;6.07;;;;;;;9.89;100.00;101884.50;5069818;28;20213;-67
2021/09/21 05:36:41;;;;;;;9.30;5.97;;;;;;;9.82;100.00;101892.78;5054479;28;20199;-69
2021/09/21 05:39:07;;;;;;;8.87;5.43;;;;;;;9.88;100.00;101905.91;5054403;28;20546;-68
2021/09/21 05:41:33;;;;;;;7.23;6.00;;;;;;;9.93;100.00;101912.81;5053007;28;20180;-68
2021/09/21 05:43:58;;;;;;;9.73;5.90;;;;;;;9.96;100.00;101911.84;5054335;28;20714;-68
2021/09/21 05:46:23;;;;;;;11.23;5.73;;;;;;;10.00;100.00;101910.81;5054162;28;20194;-68
2021/09/21 05:48:50;;;;;;;7.47;5.47;;;;;;;10.09;100.00;101920.34;5054251;28;20179;-68
2021/09/21 05:51:15;;;;;;;6.53;5.20;;;;;;;10.13;100.00;101916.63;5054290;28;20612;-68
2021/09/21 05:53:41;;;;;;;9.03;5.63;;;;;;;10.12;100.00;101923.75;5052476;28;20298;-68
2021/09/21 05:56:06;;;;;;;6.83;5.73;;;;;;;10.08;100.00;101921.25;5054099;28;20266;-68
2021/09/21 05:58:31;;;;;;;7.23;5.07;;;;;;;10.07;100.00;101916.84;5054066;28;20175;-68
2021/09/21 06:00:57;;;;;;;8.60;5.77;;;;;;;10.03;100.00;101916.03;5052554;28;20329;-68
2021/09/21 06:03:23;;;;;;;7.00;5.53;;;;;;;10.02;100.00;101917.84;5054170;28;20199;-68
2021/09/21 06:05:48;;;;;;;11.33;5.57;;;;;;;10.06;100.00;101918.63;5052315;28;20180;-68
2021/09/21 06:08:14;;;;;;;8.63;5.37;;;;;;;10.15;100.00;101918.31;5053947;28;20171;-68
2021/09/21 06:10:39;;;;;;;8.87;5.87;;;;;;;10.20;100.00;101910.16;5069501;28;20597;-68
2021/09/21 06:13:05;;;;;;;10.37;5.43;;;;;;;10.25;99.41;101911.78;5053602;28;20195;-68
2021/09/21 06:15:30;;;;;;;7.63;5.83;;;;;;;10.26;99.81;101913.50;5054442;28;20178;-68
2021/09/21 06:17:55;;;;;;;7.70;5.07;;;;;;;10.25;99.29;101909.09;5053947;28;20270;-69
2021/09/21 06:20:21;;;;;;;10.20;5.40;;;;;;;10.27;100.00;101917.06;5053576;28;20205;-67
2021/09/21 06:22:47;;;;;;;8.97;5.97;;;;;;;10.31;99.62;101914.22;5053535;28;20253;-68
2021/09/21 06:25:14;;;;;;;7.50;5.17;;;;;;;10.38;99.51;101914.88;5053607;28;20195;-68
2021/09/21 06:27:39;;;;;;;8.50;5.37;;;;;;;10.51;97.92;101910.00;5052594;28;20601;-68
2021/09/21 06:30:07;;;;;;;9.90;5.30;;;;;;;10.53;97.37;101913.47;5053704;28;20222;-68
2021/09/21 06:32:33;;;;;;;10.30;5.40;;;;;;;10.59;97.45;101910.59;5052239;28;20203;-68
2021/09/21 06:34:58;;;;;;;10.23;4.67;;;;;;;10.57;96.24;101907.97;5052544;28;20232;-67
2021/09/21 06:37:23;;;;;;;10.00;5.20;;;;;;;10.54;96.48;101917.91;5053484;28;20244;-68
2021/09/21 06:39:49;;;;;;;7.10;5.60;;;;;;;10.47;96.51;101913.72;5053674;28;20192;-68
2021/09/21 06:42:14;;;;;;;6.87;5.07;;;;;;;10.47;96.93;101924.38;5051835;28;20568;-67
2021/09/21 06:44:39;;;;;;;5.60;4.90;;;;;;;10.44;96.73;101919.16;5069540;28;20241;-67
2021/09/21 06:47:05;;;;;;;6.27;4.80;;;;;;;10.44;96.23;101925.38;5052438;28;20621;-69
2021/09/21 06:49:30;;;;;;;7.40;4.70;;;;;;;10.45;97.02;101928.91;5053593;28;20267;-69
2021/09/21 06:51:57;;;;;;;8.87;5.07;;;;;;;10.52;96.28;101933.97;5053366;28;20563;-69
2021/09/21 06:54:22;;;;;;;7.70;4.83;;;;;;;10.61;96.58;101930.09;5052139;28;20172;-68
2021/09/21 06:56:47;;;;;;;7.80;5.00;;;;;;;10.67;95.81;101931.66;5053114;28;20226;-69
2021/09/21 06:59:13;;;;;;;6.93;4.70;;;;;;;10.79;95.55;101934.78;5054037;28;20179;-68
2021/09/21 07:01:38;;;;;;;6.10;4.67;;;;;;;10.88;94.75;101928.22;5052803;28;20262;-69
2021/09/21 07:04:03;;;;;;;7.20;4.57;;;;;;;10.97;93.91;101914.53;5053988;28;20214;-68
2021/09/21 07:06:28;;;;;;;6.77;4.73;;;;;;;11.06;93.21;101907.97;5053086;28;20183;-68
2021/09/21 07:08:54;;;;;;;5.80;4.80;;;;;;;11.11;92.73;101900.63;5055154;28;20183;-69
2021/09/21 07:11:21;;;;;;;7.77;4.40;;;;;;;11.13;93.35;101906.78;5036712;28;20182;-68
2021/09/21 07:13:46;;;;;;;8.60;4.90;;;;;;;11.14;92.47;101900.50;5054173;28;20201;-69
2021/09/21 07:16:11;;;;;;;6.67;4.90;;;;;;;11.22;92.59;101904.66;5053472;28;20175;-68
2021/09/21 07:18:37;;;;;;;8.27;4.70;;;;;;;11.33;91.79;101896.22;5054953;28;20206;-68
2021/09/21 07:21:02;;;;;;;7.53;5.00;;;;;;;11.44;90.85;101882.41;5054345;28;20179;-67
2021/09/21 07:23:28;;;;;;;8.97;6.10;;;;;;;11.56;91.24;101896.19;5068959;28;20191;-69
2021/09/21 07:25:53;;;;;;;7.20;5.07;;;;;;;11.54;90.47;101871.31;5036302;28;20295;-69
2021/09/21 07:28:18;;;;;;;7.90;4.80;;;;;;;11.70;89.96;101876.91;5052000;28;20184;-68
2021/09/21 07:30:44;;;;;;;6.80;4.70;;;;;;;11.84;89.29;101881.69;5053459;28;20557;-68
2021/09/21 07:33:13;;;;;;;5.43;4.67;;;;;;;11.86;88.86;101874.47;5052135;28;20261;-68
2021/09/21 07:35:39;;;;;;;6.23;4.67;;;;;;;11.97;87.20;101852.66;5053721;28;20663;-69
2021/09/21 07:38:05;;;;;;;7.80;4.30;;;;;;;12.05;87.60;101864.75;5053418;28;20612;-68
2021/09/21 07:40:34;;;;;;;8.40;5.03;;;;;;;12.10;88.53;101878.81;5054188;28;20179;-68
2021/09/21 07:42:59;;;;;;;6.90;4.43;;;;;;;12.26;87.32;101856.72;5053940;28;20195;-68
2021/09/21 07:45:25;;;;;;;7.97;6.10;;;;;;;12.51;86.07;101852.91;5053560;28;20176;-69
2021/09/21 07:47:52;;;;;;;5.50;4.67;;;;;;;12.71;84.89;101845.78;5053373;28;20178;-68
2021/09/21 07:50:17;;;;;;;8.40;4.90;;;;;;;12.79;85.20;101841.81;5052492;28;20271;-69
2021/09/21 07:52:42;;;;;;;10.30;4.70;;;;;;;12.97;84.42;101849.94;5054554;28;20297;-68
2021/09/21 07:55:08;;;;;;;8.23;4.70;;;;;;;13.05;83.70;101842.41;5056273;28;20175;-69
2021/09/21 07:57:34;;;;;;;11.50;4.60;;;;;;;13.14;82.95;101828.56;5056012;28;20568;-68
2021/09/21 07:59:59;;;;;;;8.37;5.13;;;;;;;13.22;83.02;101838.94;5056070;28;20184;-68
2021/09/21 08:02:25;;;;;;;7.33;4.40;;;;;;;13.23;82.16;101833.53;5055892;28;20192;-68
2021/09/21 08:04:51;;;;;;;7.67;5.03;;;;;;;13.28;81.99;101838.66;5056162;28;20233;-68
2021/09/21 08:07:16;;;;;;;5.43;4.30;;;;;;;13.17;83.45;101857.94;5055859;28;20171;-68
2021/09/21 08:09:44;;;;;;;5.30;4.43;;;;;;;13.37;82.80;101862.34;5055894;28;20545;-68
2021/09/21 08:12:10;;;;;;;7.87;5.20;;;;;;;13.61;82.43;101865.66;5055738;28;20673;-69
2021/09/21 08:14:38;;;;;;;6.40;4.57;;;;;;;13.49;81.46;101834.94;5055808;28;20186;-68
2021/09/21 08:17:05;;;;;;;6.43;4.80;;;;;;;13.52;82.05;101836.59;5054350;28;20669;-68
2021/09/21 08:19:31;;;;;;;6.87;5.33;;;;;;;13.28;84.21;101877.06;5055517;28;20536;-69
2021/09/21 08:21:56;;;;;;;7.57;5.07;;;;;;;13.90;81.24;101854.34;5054598;28;20282;-69
2021/09/21 08:24:21;;;;;;;8.27;5.07;;;;;;;14.12;79.73;101837.13;5055890;28;20175;-68
2021/09/21 08:26:47;;;;;;;5.63;4.60;;;;;;;14.21;80.57;101861.69;5055499;28;20190;-68
2021/09/21 08:29:13;;;;;;;5.97;4.60;;;;;;;14.49;80.04;101854.88;5055418;28;20281;-67
2021/09/21 08:31:39;;;;;;;6.30;4.70;;;;;;;14.31;79.41;101837.91;5055792;28;20171;-67
2021/09/21 08:34:04;;;;;;;5.30;4.57;;;;;;;14.57;77.39;101813.25;5055885;28;20174;-68
2021/09/21 08:36:30;;;;;;;6.60;5.03;;;;;;;14.81;76.65;101818.22;5054015;28;20195;-68
2021/09/21 08:38:56;;;;;;;7.67;4.77;;;;;;;14.35;77.83;101818.00;5054115;28;20167;-69
2021/09/21 08:41:24;;;;;;;5.90;4.20;;;;;;;14.61;76.27;101800.53;5055394;28;20180;-69
2021/09/21 08:43:49;;;;;;;5.57;4.50;;;;;;;14.67;75.99;101786.75;5054235;28;20661;-67
2021/09/21 08:46:15;;;;;;;6.50;4.40;;;;;;;14.70;76.27;101791.94;5055117;28;20187;-67
2021/09/21 08:48:40;;;;;;;6.60;5.30;;;;;;;14.71;76.28;101793.69;5054156;28;20199;-68
2021/09/21 08:51:05;;;;;;;6.57;4.63;;;;;;;14.70;75.67;101782.06;5055468;28;20172;-68
2021/09/21 08:53:31;;;;;;;6.60;4.57;;;;;;;14.79;75.25;101777.13;5083415;23;20231;-72
2021/09/21 08:55:56;;;;;;;9.13;4.93;;;;;;;14.82;75.18;101780.50;5057363;28;20587;-72
2021/09/21 08:58:26;;;;;;;7.83;4.40;;;;;;;14.93;74.33;101761.13;5073461;28;20214;-71
2021/09/21 09:00:52;;;;;;;7.87;4.90;;;;;;;15.02;72.25;101748.03;5073597;28;20244;-72
2021/09/21 09:03:17;;;;;;;6.93;4.47;;;;;;;14.88;71.57;101730.94;5055820;28;20222;-72
2021/09/21 09:05:53;;;;;;;6.57;4.80;;;;;;;14.96;72.12;101739.44;5056859;28;20179;-72
2021/09/21 09:08:33;;;;;;;6.20;4.83;;;;;;;14.87;72.58;101753.41;5073579;28;20174;-72
2021/09/21 09:11:18;;;;;;;7.33;4.47;;;;;;;14.95;73.60;101775.34;5073686;28;20170;-71
2021/09/21 09:13:45;;;;;;;5.13;3.90;;;;;;;14.96;72.17;101745.69;5073298;28;20662;-71
2021/09/21 09:16:16;;;;;;;7.90;4.10;;;;;;;15.04;70.56;101718.34;5073054;28;20175;-71
2021/09/21 09:18:43;;;;;;;5.23;4.20;;;;;;;15.26;70.63;101731.44;5056420;28;20175;-71
2021/09/21 09:21:09;;;;;;;7.17;4.57;;;;;;;15.48;70.25;101741.78;5074784;28;20269;-71
2021/09/21 09:23:35;;;;;;;8.27;4.37;;;;;;;15.52;67.21;101690.41;5074269;28;20273;-71
2021/09/21 09:26:00;;;;;;;5.60;3.73;;;;;;;15.56;66.94;101696.44;5073346;28;20716;-71
2021/09/21 09:28:27;;;;;;;5.83;3.10;;;;;;;15.44;65.31;101681.06;5074168;28;20171;-71
2021/09/21 09:30:54;;;;;;;7.27;4.30;;;;;;;15.30;65.86;101690.81;5073121;28;20186;-71
2021/09/21 09:33:19;;;;;;;6.07;4.07;;;;;;;15.13;67.59;101720.50;5073004;28;20244;-71
2021/09/21 09:35:47;;;;;;;6.73;4.57;;;;;;;15.15;69.80;101767.00;5072716;28;20242;-71
2021/09/21 09:38:20;;;;;;;6.77;4.40;;;;;;;14.48;70.21;101733.16;5072789;28;20199;-71
2021/09/21 09:40:48;;;;;;;5.30;3.77;;;;;;;14.40;69.46;101719.25;5072610;28;20183;-72
2021/09/21 09:43:15;;;;;;;6.77;4.30;;;;;;;14.48;69.09;101710.78;5072697;28;20711;-71
2021/09/21 09:45:42;;;;;;;10.07;6.20;;;;;;;14.82;68.88;101739.34;5072856;28;20252;-71
2021/09/21 09:48:11;;;;;;;8.60;5.70;;;;;;;14.78;70.64;101764.66;5072850;28;20171;-72
2021/09/21 09:50:42;;;;;;;8.17;6.23;;;;;;;14.77;71.90;101779.91;5072649;28;20529;-71
2021/09/21 09:53:14;;;;;;;6.40;5.20;;;;;;;14.69;71.32;101772.28;5056108;28;20210;-72
2021/09/21 09:55:41;;;;;;;7.13;5.33;;;;;;;14.60;72.00;101785.34;5072543;28;20171;-72
2021/09/21 09:58:07;;;;;;;7.17;4.83;;;;;;;14.57;72.09;101770.28;5055555;28;20202;-71
2021/09/21 10:00:33;;;;;;;8.30;5.47;;;;;;;14.64;71.64;101779.72;5055257;28;20174;-70
2021/09/21 10:03:00;;;;;;;7.37;4.73;;;;;;;14.62;72.19;101787.00;5071941;28;20327;-72
2021/09/21 10:05:26;;;;;;;9.33;5.80;;;;;;;14.64;72.40;101782.41;5071953;28;20171;-71
2021/09/21 10:07:51;;;;;;;6.87;4.37;;;;;;;14.74;70.17;101757.72;5055327;28;20172;-71
2021/09/21 10:10:17;;;;;;;6.03;3.90;;;;;;;14.12;70.43;101719.88;5072226;28;20178;-71
2021/09/21 10:12:42;;;;;;;7.33;4.07;;;;;;;14.06;72.12;101760.47;5072119;28;20668;-72
2021/09/21 10:15:09;;;;;;;7.00;4.47;;;;;;;13.90;74.20;101810.53;5055277;28;20236;-70
2021/09/21 10:17:35;;;;;;;5.97;4.33;;;;;;;15.12;68.81;101761.78;5055216;28;20741;-71
2021/09/21 10:20:03;;;;;;;8.67;4.53;;;;;;;14.53;67.96;101735.59;5071998;28;20178;-71
2021/09/21 10:22:29;;;;;;;3.40;2.97;;;;;;;14.86;63.16;101685.31;5071764;28;20252;-71
2021/09/21 10:24:55;;;;;;;5.97;4.17;;;;;;;14.73;65.19;101723.72;5072034;28;20175;-70
2021/09/21 10:27:23;;;;;;;8.27;3.70;;;;;;;14.83;64.42;101714.19;5072195;28;20250;-72
2021/09/21 10:30:00;;;;;;;10.77;5.60;;;;;;;15.07;62.94;101709.25;5055189;28;20643;-71
2021/09/21 10:32:26;;;;;;;12.50;4.93;;;;;;;15.00;63.80;101733.81;5055109;28;20194;-71
2021/09/21 10:34:51;;;;;;;8.73;5.00;;;;;;;15.21;64.32;101763.94;5072054;28;20186;-70
2021/09/21 10:37:20;;;;;;;11.13;5.03;;;;;;;15.26;63.41;101744.88;5055115;28;20236;-70
2021/09/21 10:39:46;;;;;;;5.23;2.90;;;;;;;15.07;60.47;101702.06;5071926;28;20179;-71
2021/09/21 10:42:13;;;;;;;5.33;3.00;;;;;;;15.09;60.78;101724.34;5055065;28;20289;-71
2021/09/21 10:44:50;;;;;;;4.47;2.63;;;;;;;14.87;59.82;101705.03;5055170;28;20170;-72
2021/09/21 10:47:39;;;;;;;6.17;3.70;;;;;;;15.08;62.72;101754.00;5055225;28;20308;-71
2021/09/21 10:50:16;;;;;;;6.07;3.73;;;;;;;14.98;64.06;101775.16;5071737;28;20190;-72
2021/09/21 10:52:42;;;;;;;4.07;3.10;;;;;;;14.91;63.07;101742.41;5054868;28;20214;-70
2021/09/21 10:55:11;;;;;;;3.73;2.40;;;;;;;14.88;57.21;101667.31;5072262;28;20174;-71
2021/09/21 10:57:40;;;;;;;7.03;2.43;;;;;;;15.10;57.86;101669.59;5055378;28;20289;-71
2021/09/21 11:00:07;;;;;;;3.37;2.60;;;;;;;15.41;58.33;101686.63;5055593;28;20179;-70
2021/09/21 11:02:41;;;;;;;4.90;3.10;;;;;;;15.67;59.38;101717.41;5054834;28;20198;-71
2021/09/21 11:05:15;;;;;;;4.33;2.63;;;;;;;15.72;58.37;101696.44;5071893;28;20213;-71
2021/09/21 11:07:48;;;;;;;3.67;2.80;;;;;;;15.69;58.90;101704.72;5072842;28;20160;-71
2021/09/21 11:10:14;;;;;;;4.30;2.83;;;;;;;15.76;60.06;101711.44;5071569;28;20163;-71
2021/09/21 11:12:46;;;;;;;6.90;3.00;;;;;;;15.59;60.21;101713.31;5072109;28;20213;-70
2021/09/21 11:15:11;;;;;;;5.47;2.93;;;;;;;15.69;58.05;101675.97;5073403;28;20242;-71
2021/09/21 11:17:37;;;;;;;4.77;2.73;;;;;;;15.75;59.02;101699.81;5054887;28;20301;-73
2021/09/21 11:20:03;;;;;;;5.10;2.50;;;;;;;15.79;59.71;101711.25;5072098;28;20182;-73
2021/09/21 11:22:29;;;;;;;4.43;2.90;;;;;;;15.45;59.23;101683.66;5054744;28;20209;-71
2021/09/21 11:25:07;;;;;;;5.37;2.77;;;;;;;15.04;60.48;101702.22;5071612;28;20175;-73
2021/09/21 11:27:34;;;;;;;4.77;2.57;;;;;;;14.63;58.98;101669.66;5073731;28;20162;-71
2021/09/21 11:30:02;;;;;;;2.40;2.20;;;;;;;14.55;59.63;101675.47;5075517;28;20253;-71
2021/09/21 11:32:28;;;;;;;4.27;2.47;;;;;;;14.48;59.72;101675.88;5075773;28;20688;-71
2021/09/21 11:34:58;;;;;;;3.07;2.43;;;;;;;14.31;60.88;101692.91;5075677;28;20179;-72